Time;durP1;ratioP1;P1;durP2;ratioP2;P2;SDS_P1;SDS_P2;PMS_P1;PMS_P2;Temp;Humidity;BMP_temperature;BMP_pressure;BME280_temperature;BME280_humidity;BME280_pressure;Samples;Min_cycle;Max_cycle;Signal;HPM_P1;HPM_P2
2023/10/24 00:00:57;;;;;;;11.65;8.40;;;;;;;9.79;98.06;100480.88;7396103;19;20481;-68
2023/10/24 00:03:25;;;;;;;12.55;8.50;;;;;;;9.79;98.02;100470.38;7398365;19;20074;-69
2023/10/24 00:05:54;;;;;;;13.23;8.23;;;;;;;9.78;98.17;100468.66;7398581;19;20090;-68
2023/10/24 00:08:23;;;;;;;11.57;8.02;;;;;;;9.77;98.08;100470.41;7396764;19;20028;-68
2023/10/24 00:10:51;;;;;;;9.95;8.18;;;;;;;9.77;98.15;100457.31;7394181;19;20376;-70
2023/10/24 00:13:20;;;;;;;10.20;7.50;;;;;;;9.77;98.09;100449.47;7398329;19;20086;-68
2023/10/24 00:15:48;;;;;;;9.25;8.07;;;;;;;9.77;98.24;100435.50;7398214;19;20031;-68
2023/10/24 00:18:19;;;;;;;10.85;8.48;;;;;;;9.77;98.21;100427.66;7396255;19;20024;-68
2023/10/24 00:20:48;;;;;;;10.52;8.35;;;;;;;9.77;98.20;100417.19;7395885;19;20074;-68
2023/10/24 00:23:16;;;;;;;11.38;8.30;;;;;;;9.75;98.38;100411.09;7397643;19;20020;-66
2023/10/24 00:25:44;;;;;;;13.07;7.90;;;;;;;9.76;98.27;100429.41;7395970;19;20014;-67
2023/10/24 00:28:13;;;;;;;10.65;7.38;;;;;;;9.77;98.36;100431.13;7396394;19;20018;-66
2023/10/24 00:30:42;;;;;;;9.77;7.82;;;;;;;9.80;98.35;100435.44;7397734;19;20014;-66
2023/10/24 00:33:10;;;;;;;11.90;8.27;;;;;;;9.82;98.38;100435.38;7397672;19;20027;-66
2023/10/24 00:35:41;;;;;;;11.15;8.43;;;;;;;9.82;98.40;100431.03;7397601;19;20010;-64
2023/10/24 00:38:10;;;;;;;11.77;8.40;;;;;;;9.84;98.41;100428.38;7396396;19;20006;-71
2023/10/24 00:40:45;;;;;;;10.57;8.35;;;;;;;9.86;98.48;100423.97;7394572;19;20426;-67
2023/10/24 00:43:14;;;;;;;12.38;7.78;;;;;;;9.88;98.45;100419.53;7395141;19;20498;-66
2023/10/24 00:45:44;;;;;;;13.00;8.90;;;;;;;9.89;98.51;100414.25;7397256;19;20031;-67
2023/10/24 00:48:13;;;;;;;9.65;8.05;;;;;;;9.92;98.71;100414.19;7396083;19;20014;-67
2023/10/24 00:50:44;;;;;;;12.88;9.18;;;;;;;9.94;99.05;100396.66;7396655;19;20033;-67
2023/10/24 00:53:13;;;;;;;14.23;8.50;;;;;;;9.95;99.01;100379.19;7396715;19;20417;-67
2023/10/24 00:55:43;;;;;;;12.10;8.93;;;;;;;9.95;99.09;100371.31;7395127;19;20031;-67
2023/10/24 00:58:13;;;;;;;11.70;8.80;;;;;;;9.95;98.98;100373.94;7395601;19;20011;-68
2023/10/24 01:00:46;;;;;;;11.85;8.65;;;;;;;9.95;99.04;100361.69;7395000;19;20564;-68
2023/10/24 01:03:15;;;;;;;11.02;8.60;;;;;;;9.94;99.07;100364.34;7395365;19;20010;-67
2023/10/24 01:05:47;;;;;;;14.93;9.25;;;;;;;9.98;99.04;100370.38;7396609;19;20010;-69
2023/10/24 01:08:16;;;;;;;12.93;9.10;;;;;;;9.97;99.13;100359.03;7395417;19;20015;-68
2023/10/24 01:10:44;;;;;;;13.13;9.63;;;;;;;9.99;99.28;100364.25;7395970;19;20578;-69
2023/10/24 01:13:13;;;;;;;15.82;9.30;;;;;;;10.00;99.18;100360.72;7395062;19;20379;-68
2023/10/24 01:15:42;;;;;;;15.85;9.25;;;;;;;9.98;99.37;100352.03;7395879;19;20029;-68
2023/10/24 01:18:10;;;;;;;13.57;9.40;;;;;;;9.98;99.32;100349.41;7394977;19;20018;-68
2023/10/24 01:20:40;;;;;;;14.13;9.52;;;;;;;9.99;99.38;100351.97;7394760;19;20017;-68
2023/10/24 01:23:12;;;;;;;16.00;9.68;;;;;;;9.99;99.37;100354.59;7394012;19;20343;-68
2023/10/24 01:25:42;;;;;;;13.68;8.90;;;;;;;9.99;99.64;100353.75;7396278;19;20078;-67
2023/10/24 01:28:11;;;;;;;15.13;9.48;;;;;;;9.99;99.69;100367.72;7394685;19;20074;-68
2023/10/24 01:31:02;;;;;;;11.98;10.02;;;;;;;9.99;99.64;100361.63;7395788;19;20010;-68
2023/10/24 01:33:30;;;;;;;11.52;9.07;;;;;;;9.97;99.40;100361.66;7395613;19;20035;-68
2023/10/24 01:35:59;;;;;;;14.25;8.57;;;;;;;10.00;99.43;100365.97;7395212;19;20082;-68
2023/10/24 01:38:30;;;;;;;13.55;9.52;;;;;;;10.02;99.53;100366.75;7393820;19;20010;-68
2023/10/24 01:41:05;;;;;;;11.48;8.95;;;;;;;10.02;99.46;100354.53;7393829;19;20018;-68
2023/10/24 01:43:46;;;;;;;11.77;8.90;;;;;;;10.04;99.49;100362.34;7396642;19;20015;-67
2023/10/24 01:46:14;;;;;;;10.43;9.00;;;;;;;10.05;99.29;100358.84;7396500;19;20015;-68
2023/10/24 01:48:43;;;;;;;12.25;9.23;;;;;;;10.06;99.43;100360.53;7393659;19;20024;-68
2023/10/24 01:51:11;;;;;;;13.13;9.20;;;;;;;10.07;99.33;100363.16;7395276;19;20031;-68
2023/10/24 01:53:42;;;;;;;12.30;9.32;;;;;;;10.08;99.28;100362.25;7395207;19;20031;-67
2023/10/24 01:56:13;;;;;;;16.52;9.70;;;;;;;10.09;99.35;100358.69;7394754;19;20510;-68
2023/10/24 01:58:41;;;;;;;12.77;9.38;;;;;;;10.10;99.28;100356.97;7393518;19;20086;-66
2023/10/24 02:01:10;;;;;;;14.50;9.02;;;;;;;10.12;99.23;100363.00;7393390;19;20023;-68
2023/10/24 02:03:38;;;;;;;12.13;9.45;;;;;;;10.14;99.15;100355.13;7394471;19;20477;-68
2023/10/24 02:06:07;;;;;;;14.40;9.88;;;;;;;10.14;99.20;100352.50;7394942;19;20015;-67
2023/10/24 02:08:35;;;;;;;13.32;9.23;;;;;;;10.14;99.19;100361.22;7393092;19;20032;-67
2023/10/24 02:11:06;;;;;;;12.63;9.80;;;;;;;10.12;99.16;100363.00;7392361;19;20021;-67
2023/10/24 02:13:42;;;;;;;12.43;9.48;;;;;;;10.15;99.29;100367.31;7392440;19;20010;-68
2023/10/24 02:16:10;;;;;;;13.10;8.93;;;;;;;10.15;99.12;100357.69;7394425;19;20018;-68
2023/10/24 02:18:38;;;;;;;16.45;8.95;;;;;;;10.16;99.10;100359.44;7392704;19;20031;-68
2023/10/24 02:21:09;;;;;;;12.73;8.70;;;;;;;10.17;99.24;100355.88;7392538;19;20015;-67
2023/10/24 02:23:39;;;;;;;15.05;9.82;;;;;;;10.18;99.09;100348.91;7392192;19;20513;-68
2023/10/24 02:26:15;;;;;;;13.82;8.90;;;;;;;10.18;99.06;100347.13;7394604;19;20016;-67
2023/10/24 02:28:44;;;;;;;11.13;8.88;;;;;;;10.19;99.07;100340.97;7392536;19;20018;-66
2023/10/24 02:31:14;;;;;;;11.30;8.75;;;;;;;10.20;99.19;100340.09;7394136;19;20098;-67
2023/10/24 02:33:42;;;;;;;12.32;8.75;;;;;;;10.21;99.25;100341.81;7394390;19;20027;-66
2023/10/24 02:36:11;;;;;;;11.75;8.80;;;;;;;10.21;99.16;100339.19;7401366;19;20014;-66
2023/10/24 02:38:40;;;;;;;13.65;8.85;;;;;;;10.21;99.17;100347.06;7398499;19;20019;-67
2023/10/24 02:41:11;;;;;;;10.50;8.43;;;;;;;10.22;99.22;100343.53;7398904;19;20082;-67
2023/10/24 02:43:40;;;;;;;15.18;8.95;;;;;;;10.22;99.21;100340.91;7400879;19;20020;-67
2023/10/24 02:46:09;;;;;;;12.27;9.00;;;;;;;10.24;99.14;100335.63;7401307;19;20074;-67
2023/10/24 02:48:37;;;;;;;15.35;8.57;;;;;;;10.25;99.12;100334.72;7398767;19;20014;-67
2023/10/24 02:51:12;;;;;;;17.65;8.82;;;;;;;10.25;99.13;100332.94;7401062;19;20010;-67
2023/10/24 02:53:40;;;;;;;13.30;9.70;;;;;;;10.24;99.31;100340.88;7398117;19;20089;-67
2023/10/24 02:56:12;;;;;;;13.70;9.00;;;;;;;10.24;99.20;100325.13;7401198;19;20014;-66
2023/10/24 02:58:40;;;;;;;12.48;8.45;;;;;;;10.24;99.22;100320.75;7399840;19;20090;-66
2023/10/24 03:01:09;;;;;;;14.75;8.88;;;;;;;10.24;99.35;100322.50;7398879;19;20032;-65
2023/10/24 03:03:37;;;;;;;12.65;8.40;;;;;;;10.26;99.40;100313.72;7400401;19;20094;-65
2023/10/24 03:06:16;;;;;;;12.35;8.40;;;;;;;10.27;99.40;100304.06;7400201;19;20014;-65
2023/10/24 03:08:44;;;;;;;12.57;9.38;;;;;;;10.27;99.49;100304.94;7397527;19;20025;-65
2023/10/24 03:11:22;;;;;;;14.63;8.82;;;;;;;10.28;99.35;100322.38;7397807;19;20074;-66
2023/10/24 03:13:51;;;;;;;13.88;8.45;;;;;;;10.28;99.40;100335.47;7400435;19;20024;-66
2023/10/24 03:16:19;;;;;;;13.70;9.38;;;;;;;10.31;99.48;100344.19;7399887;19;20014;-66
2023/10/24 03:18:48;;;;;;;13.85;8.82;;;;;;;10.32;99.47;100333.63;7397730;19;20023;-67
2023/10/24 03:21:17;;;;;;;15.25;9.07;;;;;;;10.33;99.39;100331.91;7397566;19;20078;-66
2023/10/24 03:23:46;;;;;;;13.40;8.85;;;;;;;10.35;99.35;100327.44;7397114;19;20513;-66
2023/10/24 03:26:17;;;;;;;11.60;8.48;;;;;;;10.34;99.53;100308.25;7399836;19;20030;-66
2023/10/24 03:28:45;;;;;;;11.75;8.55;;;;;;;10.35;99.52;100293.34;7397326;19;20070;-66
2023/10/24 03:31:14;;;;;;;14.38;9.52;;;;;;;10.35;99.53;100269.75;7399664;19;20015;-66
2023/10/24 03:33:43;;;;;;;11.75;9.10;;;;;;;10.36;99.49;100247.91;7399370;19;20010;-67
2023/10/24 03:36:15;;;;;;;15.35;9.02;;;;;;;10.36;99.79;100245.28;7397940;19;20015;-66
2023/10/24 03:38:43;;;;;;;11.40;8.23;;;;;;;10.34;99.54;100263.66;7396738;19;20020;-66
2023/10/24 03:41:12;;;;;;;15.35;9.65;;;;;;;10.33;99.53;100282.06;7397171;19;20010;-67
2023/10/24 03:43:47;;;;;;;14.23;8.65;;;;;;;10.32;99.72;100286.44;7399375;19;20010;-66
2023/10/24 03:46:16;;;;;;;14.80;9.20;;;;;;;10.34;99.60;100289.03;7397009;19;20016;-66
2023/10/24 03:48:44;;;;;;;14.82;9.73;;;;;;;10.33;99.68;100269.81;7396494;19;20014;-66
2023/10/24 03:51:13;;;;;;;14.68;9.32;;;;;;;10.32;99.58;100259.38;7396588;19;20010;-66
2023/10/24 03:53:41;;;;;;;12.98;9.25;;;;;;;10.33;99.58;100255.84;7396758;19;20019;-66
2023/10/24 03:56:10;;;;;;;14.05;9.20;;;;;;;10.32;99.70;100259.38;7398451;19;20545;-66
2023/10/24 03:58:38;;;;;;;12.35;9.95;;;;;;;10.33;99.81;100259.31;7396815;19;20015;-65
2023/10/24 04:01:09;;;;;;;14.10;10.00;;;;;;;10.34;99.78;100262.81;7397538;19;20006;-66
2023/10/24 04:03:38;;;;;;;13.43;9.25;;;;;;;10.33;99.79;100255.84;7398988;19;20070;-66
2023/10/24 04:06:12;;;;;;;12.00;9.93;;;;;;;10.32;99.80;100260.22;7398224;19;20027;-66
2023/10/24 04:08:41;;;;;;;12.70;9.88;;;;;;;10.32;99.85;100265.47;7395942;19;20017;-67
2023/10/24 04:11:15;;;;;;;12.88;9.90;;;;;;;10.33;99.87;100276.81;7395842;19;20029;-66
2023/10/24 04:13:44;;;;;;;15.98;9.38;;;;;;;10.32;99.77;100270.72;7397089;19;20473;-66
2023/10/24 04:16:16;;;;;;;17.35;9.98;;;;;;;10.32;99.88;100264.63;7397793;19;20022;-66
2023/10/24 04:18:44;;;;;;;17.17;10.35;;;;;;;10.32;99.96;100265.47;7396003;19;20027;-65
2023/10/24 04:21:16;;;;;;;21.95;10.50;;;;;;;10.32;100.00;100256.75;7396561;19;20537;-66
2023/10/24 04:23:45;;;;;;;14.48;10.30;;;;;;;10.31;100.00;100241.91;7397480;19;20062;-66
2023/10/24 04:26:14;;;;;;;12.85;10.07;;;;;;;10.31;100.00;100247.16;7395387;19;20521;-66
2023/10/24 04:28:43;;;;;;;17.65;11.27;;;;;;;10.30;100.00;100240.19;7395265;19;20011;-66
2023/10/24 04:31:11;;;;;;;16.25;10.32;;;;;;;10.31;100.00;100236.66;7396443;19;20368;-66
2023/10/24 04:33:44;;;;;;;16.60;9.23;;;;;;;10.30;100.00;100241.06;7397155;19;20066;-66
2023/10/24 04:36:14;;;;;;;19.77;10.75;;;;;;;10.30;100.00;100251.56;7396866;19;20021;-65
2023/10/24 04:38:42;;;;;;;15.43;10.38;;;;;;;10.30;100.00;100258.53;7395104;19;20070;-66
2023/10/24 04:41:11;;;;;;;17.90;10.65;;;;;;;10.28;100.00;100248.09;7395289;19;20510;-66
2023/10/24 04:43:39;;;;;;;16.92;10.52;;;;;;;10.26;100.00;100244.66;7395616;19;20074;-66
2023/10/24 04:46:09;;;;;;;19.80;11.02;;;;;;;10.27;100.00;100243.75;7394748;19;20481;-66
2023/10/24 04:48:37;;;;;;;14.23;10.68;;;;;;;10.26;100.00;100234.16;7395068;19;20031;-66
2023/10/24 04:51:14;;;;;;;17.58;11.02;;;;;;;10.25;100.00;100230.69;7396741;19;20445;-67
2023/10/24 04:53:42;;;;;;;13.27;10.15;;;;;;;10.24;100.00;100220.25;7397084;19;20091;-67
2023/10/24 04:56:11;;;;;;;17.30;11.05;;;;;;;10.23;100.00;100216.78;7395006;19;20014;-66
2023/10/24 04:58:39;;;;;;;15.52;11.90;;;;;;;10.22;100.00;100211.56;7394147;19;20031;-67
2023/10/24 05:01:08;;;;;;;27.95;16.83;;;;;;;10.21;100.00;100205.50;7395611;19;20070;-66
2023/10/24 05:03:38;;;;;;;18.45;11.23;;;;;;;10.19;100.00;100202.03;7394166;19;20011;-66
2023/10/24 05:06:07;;;;;;;17.02;11.30;;;;;;;10.20;100.00;100208.16;7394206;19;20014;-67
2023/10/24 05:08:38;;;;;;;18.17;12.60;;;;;;;10.19;100.00;100196.78;7394317;19;20014;-67
2023/10/24 05:11:07;;;;;;;17.67;10.90;;;;;;;10.18;100.00;100196.84;7396341;19;20014;-66
2023/10/24 05:13:36;;;;;;;17.52;11.27;;;;;;;10.17;100.00;100195.97;7395809;19;20033;-66
2023/10/24 05:16:04;;;;;;;21.98;11.85;;;;;;;10.16;100.00;100186.41;7394320;19;20018;-66
2023/10/24 05:18:33;;;;;;;15.43;11.10;;;;;;;10.15;100.00;100195.19;7393697;19;20442;-67
2023/10/24 05:21:01;;;;;;;14.32;11.30;;;;;;;10.17;100.00;100203.00;7394695;19;20521;-65
2023/10/24 05:23:30;;;;;;;17.23;11.68;;;;;;;10.17;100.00;100208.22;7395071;19;20024;-68
2023/10/24 05:26:01;;;;;;;14.88;11.27;;;;;;;10.16;100.00;100217.00;7395772;19;20018;-67
2023/10/24 05:28:32;;;;;;;19.83;11.93;;;;;;;10.15;100.00;100210.91;7394428;19;20089;-67
2023/10/24 05:31:00;;;;;;;16.88;11.57;;;;;;;10.16;100.00;100209.13;7395203;19;20374;-67
2023/10/24 05:33:29;;;;;;;15.55;10.85;;;;;;;10.15;100.00;100208.28;7395083;19;20074;-67
2023/10/24 05:35:57;;;;;;;18.83;11.02;;;;;;;10.16;100.00;100199.53;7395212;19;20074;-68
2023/10/24 05:38:26;;;;;;;16.08;11.38;;;;;;;10.16;100.00;100189.03;7394054;19;20018;-67
2023/10/24 05:40:54;;;;;;;19.55;11.05;;;;;;;10.16;100.00;100191.66;7393916;19;20081;-68
2023/10/24 05:43:25;;;;;;;15.23;10.90;;;;;;;10.16;100.00;100180.28;7392771;19;20010;-67
2023/10/24 05:45:54;;;;;;;16.20;11.02;;;;;;;10.15;100.00;100168.97;7395162;19;20011;-68
2023/10/24 05:48:22;;;;;;;17.10;10.52;;;;;;;10.15;100.00;100158.47;7393420;19;20028;-68
2023/10/24 05:50:51;;;;;;;17.48;10.90;;;;;;;10.14;100.00;100154.13;7394908;19;20070;-68
2023/10/24 05:53:19;;;;;;;15.75;11.10;;;;;;;10.13;100.00;100160.28;7394340;19;20086;-66
2023/10/24 05:55:48;;;;;;;18.13;10.77;;;;;;;10.12;100.00;100155.94;7394724;19;20070;-67
2023/10/24 05:58:19;;;;;;;14.27;10.80;;;;;;;10.12;100.00;100142.81;7392969;19;20082;-67
2023/10/24 06:00:50;;;;;;;18.20;10.60;;;;;;;10.12;100.00;100127.09;7393732;19;20478;-67
2023/10/24 06:03:18;;;;;;;18.05;11.23;;;;;;;10.11;100.00;100120.16;7392482;19;20066;-67
2023/10/24 06:05:49;;;;;;;18.13;11.52;;;;;;;10.11;100.00;100115.75;7394016;19;20014;-67
2023/10/24 06:08:17;;;;;;;15.68;11.02;;;;;;;10.10;100.00;100103.56;7393372;19;20018;-67
2023/10/24 06:10:46;;;;;;;14.55;10.88;;;;;;;10.10;100.00;100105.34;7401436;19;20027;-68
2023/10/24 06:13:14;;;;;;;18.25;10.65;;;;;;;10.08;100.00;100105.38;7401588;19;20536;-68
2023/10/24 06:15:43;;;;;;;15.80;10.20;;;;;;;10.08;100.00;100107.13;7401811;19;20077;-68
2023/10/24 06:18:14;;;;;;;16.60;10.95;;;;;;;10.08;100.00;100115.00;7397871;19;20027;-66
2023/10/24 06:20:42;;;;;;;14.27;10.27;;;;;;;10.07;100.00;100116.75;7400188;19;20411;-67
2023/10/24 06:23:11;;;;;;;16.20;10.55;;;;;;;10.08;100.00;100112.38;7400754;19;20019;-66
2023/10/24 06:25:40;;;;;;;15.48;10.27;;;;;;;10.08;100.00;100108.00;7400446;19;20378;-66
2023/10/24 06:28:09;;;;;;;15.30;10.10;;;;;;;10.10;100.00;100107.94;7399513;19;20070;-67
2023/10/24 06:30:38;;;;;;;16.52;10.73;;;;;;;10.09;100.00;100107.06;7401195;19;20019;-67
2023/10/24 06:33:07;;;;;;;15.65;10.10;;;;;;;10.10;100.00;100106.19;7400712;19;20010;-67
2023/10/24 06:35:38;;;;;;;15.48;9.63;;;;;;;10.12;100.00;100106.13;7400159;19;20074;-66
2023/10/24 06:38:06;;;;;;;16.48;10.77;;;;;;;10.12;100.00;100100.88;7398566;19;20074;-67
2023/10/24 06:40:35;;;;;;;12.95;9.68;;;;;;;10.15;100.00;100111.28;7396850;19;20010;-66
2023/10/24 06:43:05;;;;;;;16.88;11.32;;;;;;;10.15;100.00;100103.44;7397335;19;20023;-67
2023/10/24 06:45:34;;;;;;;17.45;10.20;;;;;;;10.17;100.00;100109.47;7399769;19;20544;-67
2023/10/24 06:48:02;;;;;;;14.02;9.75;;;;;;;10.18;100.00;100102.47;7398458;19;20082;-67
2023/10/24 06:50:31;;;;;;;16.77;10.15;;;;;;;10.20;100.00;100105.91;7400663;19;20020;-67
2023/10/24 06:53:02;;;;;;;17.02;10.50;;;;;;;10.21;100.00;100108.50;7398729;19;20011;-67
2023/10/24 06:55:30;;;;;;;16.67;11.48;;;;;;;10.24;100.00;100107.53;7400570;19;20074;-66
2023/10/24 06:57:59;;;;;;;16.38;10.95;;;;;;;10.28;100.00;100112.63;7398443;19;20037;-68
2023/10/24 07:00:28;;;;;;;25.70;16.63;;;;;;;10.29;100.00;100105.63;7397982;19;20082;-67
2023/10/24 07:02:57;;;;;;;18.85;11.25;;;;;;;10.34;100.00;100113.38;7398551;19;20006;-68
2023/10/24 07:05:26;;;;;;;16.30;10.88;;;;;;;10.35;100.00;100109.81;7400230;19;20003;-66
2023/10/24 07:07:54;;;;;;;18.70;11.50;;;;;;;10.38;100.00;100107.13;7398837;19;20033;-67
2023/10/24 07:10:25;;;;;;;24.52;11.27;;;;;;;10.40;100.00;100113.19;7400578;19;20074;-67
2023/10/24 07:12:54;;;;;;;20.10;11.73;;;;;;;10.41;100.00;100107.91;7399335;19;20018;-67
2023/10/24 07:15:22;;;;;;;16.33;10.15;;;;;;;10.45;100.00;100102.56;7396600;19;20364;-68
2023/10/24 07:17:51;;;;;;;19.73;11.27;;;;;;;10.48;100.00;100103.31;7397575;19;20023;-68
2023/10/24 07:20:20;;;;;;;17.77;10.55;;;;;;;10.52;100.00;100096.22;7398253;19;20074;-67
2023/10/24 07:22:49;;;;;;;14.93;10.98;;;;;;;10.56;100.00;100106.56;7397611;19;20007;-67
2023/10/24 07:25:17;;;;;;;17.88;11.40;;;;;;;10.58;100.00;100109.13;7397202;19;20027;-67
2023/10/24 07:27:49;;;;;;;13.80;10.38;;;;;;;10.61;100.00;100102.94;7397998;19;20082;-67
2023/10/24 07:30:17;;;;;;;14.13;9.77;;;;;;;10.64;100.00;100098.44;7399824;19;20014;-67
2023/10/24 07:32:46;;;;;;;13.45;9.30;;;;;;;10.66;100.00;100085.28;7398836;19;20078;-67
2023/10/24 07:35:14;;;;;;;14.07;10.35;;;;;;;10.67;100.00;100087.00;7399019;19;20062;-68
2023/10/24 07:37:43;;;;;;;14.68;10.02;;;;;;;10.68;100.00;100093.94;7398140;19;20028;-67
2023/10/24 07:40:12;;;;;;;13.75;10.00;;;;;;;10.70;100.00;100092.13;7398586;19;20424;-68
2023/10/24 07:42:47;;;;;;;103.53;62.20;;;;;;;10.72;100.00;100095.56;7396697;19;20024;-67
2023/10/24 07:45:18;;;;;;;30.55;18.80;;;;;;;10.75;100.00;100100.72;7399009;19;20003;-67
2023/10/24 07:47:47;;;;;;;16.02;10.95;;;;;;;10.78;100.00;100086.63;7397443;19;20055;-67
2023/10/24 07:50:15;;;;;;;15.65;11.27;;;;;;;10.80;99.92;100084.81;7396011;19;20015;-68
2023/10/24 07:52:44;;;;;;;14.00;10.07;;;;;;;10.81;99.82;100079.53;7396347;19;20031;-68
2023/10/24 07:55:12;;;;;;;17.05;9.48;;;;;;;10.83;99.91;100076.84;7398458;19;20073;-67
2023/10/24 07:57:41;;;;;;;13.27;9.30;;;;;;;10.86;99.54;100074.13;7395719;19;20024;-66
2023/10/24 08:00:11;;;;;;;13.40;10.20;;;;;;;10.87;99.58;100071.44;7398061;19;20506;-66
2023/10/24 08:02:42;;;;;;;13.27;9.82;;;;;;;10.89;99.48;100074.00;7396785;19;20031;-67
2023/10/24 08:05:11;;;;;;;13.88;9.52;;;;;;;10.88;99.47;100069.66;7396180;19;20070;-68
2023/10/24 08:07:40;;;;;;;14.52;9.82;;;;;;;10.90;99.39;100067.84;7396416;19;20369;-68
2023/10/24 08:10:09;;;;;;;14.32;8.95;;;;;;;10.91;99.43;100064.31;7398494;19;20028;-68
2023/10/24 08:12:43;;;;;;;14.73;9.30;;;;;;;10.91;99.48;100059.06;7398834;19;20018;-68
2023/10/24 08:15:12;;;;;;;14.73;9.65;;;;;;;10.94;99.54;100063.38;7397981;19;20074;-67
2023/10/24 08:17:43;;;;;;;16.42;9.77;;;;;;;10.95;99.44;100059.84;7397076;19;20035;-68
2023/10/24 08:20:13;;;;;;;15.60;9.60;;;;;;;10.97;99.50;100056.25;7398012;19;20018;-67
2023/10/24 08:22:41;;;;;;;21.17;10.80;;;;;;;10.99;99.39;100056.19;7396475;19;20085;-67
2023/10/24 08:25:10;;;;;;;12.50;9.32;;;;;;;11.04;99.24;100046.38;7397542;19;20343;-67
2023/10/24 08:27:39;;;;;;;13.98;9.38;;;;;;;11.07;99.29;100046.28;7394967;19;20540;-67
2023/10/24 08:30:09;;;;;;;13.68;9.32;;;;;;;11.10;99.21;100042.69;7397328;19;20010;-67
2023/10/24 08:32:37;;;;;;;12.93;8.65;;;;;;;11.12;99.22;100041.75;7393315;19;20014;-67
2023/10/24 08:35:09;;;;;;;13.73;8.63;;;;;;;11.17;99.04;100045.06;7397119;19;20071;-67
2023/10/24 08:37:37;;;;;;;15.70;9.02;;;;;;;11.19;98.99;100043.22;7396637;19;20161;-67
2023/10/24 08:40:08;;;;;;;12.90;9.05;;;;;;;11.22;98.91;100032.63;7395557;19;20074;-67
2023/10/24 08:42:37;;;;;;;12.48;8.77;;;;;;;11.25;98.93;100031.66;7395474;19;20359;-68
2023/10/24 08:45:06;;;;;;;11.85;8.98;;;;;;;11.30;98.76;100044.59;7396749;19;20011;-68
2023/10/24 08:47:36;;;;;;;14.57;10.30;;;;;;;11.34;98.71;100048.84;7395818;19;20380;-67
2023/10/24 08:50:09;;;;;;;15.18;8.73;;;;;;;11.38;98.65;100046.03;7397203;19;20085;-67
2023/10/24 08:52:38;;;;;;;12.38;8.55;;;;;;;11.43;98.59;100043.25;7396419;19;20029;-67
2023/10/24 08:55:07;;;;;;;17.88;9.70;;;;;;;11.45;98.60;100033.56;7396662;19;20011;-66
2023/10/24 08:57:40;;;;;;;14.85;8.75;;;;;;;11.54;98.44;100038.47;7394523;19;20014;-68
2023/10/24 09:00:12;;;;;;;16.52;9.00;;;;;;;11.55;98.05;100032.28;7396377;19;20406;-68
2023/10/24 09:02:41;;;;;;;17.13;9.60;;;;;;;11.66;98.00;100047.63;7395677;19;20017;-68
2023/10/24 09:05:12;;;;;;;11.10;8.13;;;;;;;11.72;98.04;100043.94;7396352;19;20032;-67
2023/10/24 09:07:41;;;;;;;13.57;7.97;;;;;;;11.78;97.70;100041.09;7395508;19;20062;-67
2023/10/24 09:10:11;;;;;;;11.73;8.32;;;;;;;11.85;97.49;100042.56;7394257;19;20006;-67
2023/10/24 09:12:39;;;;;;;12.50;7.82;;;;;;;11.91;97.31;100036.22;7394019;19;20498;-67
2023/10/24 09:15:10;;;;;;;12.30;8.00;;;;;;;11.97;97.07;100038.63;7394547;19;20343;-67
2023/10/24 09:17:40;;;;;;;12.20;8.18;;;;;;;12.03;96.88;100045.41;7393465;19;20017;-67
2023/10/24 09:20:12;;;;;;;14.15;7.57;;;;;;;12.09;96.84;100039.91;7394204;19;20098;-66
2023/10/24 09:22:50;;;;;;;13.63;7.78;;;;;;;12.15;96.52;100033.56;7394454;19;20497;-65
2023/10/24 09:25:23;;;;;;;14.38;8.05;;;;;;;12.22;96.25;100032.44;7395148;19;20099;-66
2023/10/24 09:27:52;;;;;;;13.20;7.63;;;;;;;12.26;95.76;100019.97;7394560;19;20014;-64
2023/10/24 09:30:23;;;;;;;13.23;8.20;;;;;;;12.30;95.67;100021.59;7395201;19;20019;-64
2023/10/24 09:32:52;;;;;;;15.68;9.90;;;;;;;12.35;95.54;100017.00;7395387;19;20029;-64
2023/10/24 09:35:24;;;;;;;10.77;8.10;;;;;;;12.41;95.43;100021.13;7395125;19;20368;-64
2023/10/24 09:37:52;;;;;;;16.77;10.55;;;;;;;12.46;95.01;100033.19;7393875;19;20070;-64
2023/10/24 09:40:21;;;;;;;15.48;11.48;;;;;;;12.51;94.71;100039.13;7394787;19;20327;-63
2023/10/24 09:42:57;;;;;;;19.10;8.52;;;;;;;12.57;94.58;100045.06;7392596;19;20099;-63
2023/10/24 09:45:26;;;;;;;26.70;10.55;;;;;;;12.61;94.24;100039.59;7392833;19;20014;-69
2023/10/24 09:47:56;;;;;;;17.67;11.25;;;;;;;12.64;94.17;100036.84;7392851;19;20011;-66
2023/10/24 09:50:28;;;;;;;10.88;7.47;;;;;;;12.69;94.00;100034.03;7392484;19;20078;-66
2023/10/24 09:52:57;;;;;;;12.27;8.65;;;;;;;12.72;93.88;100033.88;7394670;19;20014;-65
2023/10/24 09:55:26;;;;;;;14.77;7.72;;;;;;;12.74;93.79;100032.06;7393575;19;20069;-65
2023/10/24 09:57:58;;;;;;;12.65;8.98;;;;;;;12.77;93.44;100031.06;7393367;19;20078;-66
2023/10/24 10:00:27;;;;;;;13.27;7.68;;;;;;;12.79;93.39;100030.06;7394028;19;20502;-66
2023/10/24 10:02:58;;;;;;;12.15;7.65;;;;;;;12.81;93.15;100028.22;7393506;19;20066;-65
2023/10/24 10:05:31;;;;;;;13.20;8.80;;;;;;;12.84;92.94;100028.09;7391440;19;20023;-65
2023/10/24 10:08:02;;;;;;;9.70;7.18;;;;;;;12.87;92.90;100016.59;7392418;19;20015;-66
2023/10/24 10:10:34;;;;;;;13.65;8.77;;;;;;;12.91;92.81;100012.88;7393535;19;20377;-65
2023/10/24 10:13:12;;;;;;;13.95;8.30;;;;;;;12.94;92.68;100014.53;7392470;19;20041;-65
2023/10/24 10:16:04;;;;;;;10.05;6.95;;;;;;;12.98;92.43;100011.72;7394306;19;20383;-65
2023/10/24 10:18:55;;;;;;;8.57;6.68;;;;;;;13.02;92.67;100005.38;7392223;19;20014;-66
2023/10/24 10:21:39;;;;;;;14.43;7.57;;;;;;;13.06;92.37;99992.94;7394614;19;20078;-65
2023/10/24 10:24:35;;;;;;;11.00;8.40;;;;;;;13.11;92.34;99985.69;7391838;19;20074;-66
2023/10/24 10:27:17;;;;;;;24.13;10.15;;;;;;;13.17;92.23;99981.94;7392096;19;20032;-66
2023/10/24 10:29:55;;;;;;;13.88;8.13;;;;;;;13.26;92.04;99989.41;7393338;19;20074;-65
2023/10/24 10:32:34;;;;;;;11.13;7.38;;;;;;;13.34;91.97;99989.94;7393255;19;20014;-66
2023/10/24 10:35:02;;;;;;;12.90;8.52;;;;;;;13.43;91.74;99979.94;7393600;19;20074;-65
2023/10/24 10:37:38;;;;;;;12.45;7.65;;;;;;;13.52;91.36;99982.13;7391962;19;20419;-65
2023/10/24 10:40:31;;;;;;;14.50;9.80;;;;;;;13.59;91.26;99980.94;7391753;19;20030;-65
2023/10/24 10:42:59;;;;;;;10.48;6.47;;;;;;;13.65;91.05;99983.28;7390541;19;20018;-65
2023/10/24 10:45:29;;;;;;;11.52;7.53;;;;;;;13.72;90.65;99981.19;7390541;19;20082;-66
2023/10/24 10:48:01;;;;;;;10.45;7.82;;;;;;;13.77;90.27;99979.19;7390702;19;20007;-66
2023/10/24 10:50:30;;;;;;;7.88;6.40;;;;;;;13.83;90.46;99978.06;7392961;19;20010;-66
2023/10/24 10:53:11;;;;;;;8.98;5.88;;;;;;;13.89;89.95;99972.50;7391564;19;20534;-66
2023/10/24 10:56:09;;;;;;;12.63;7.28;;;;;;;13.94;90.07;99973.13;7394905;19;20099;-65
2023/10/24 10:58:54;;;;;;;7.07;5.35;;;;;;;14.00;89.51;99964.94;7395670;19;20014;-65
2023/10/24 11:01:34;;;;;;;8.65;5.13;;;;;;;14.05;88.88;99961.22;7399401;19;20083;-65
2023/10/24 11:04:03;;;;;;;9.13;5.40;;;;;;;14.07;88.93;99957.56;7398188;19;20014;-66
2023/10/24 11:06:31;;;;;;;17.38;9.52;;;;;;;14.12;88.60;99958.19;7396622;19;20027;-66
2023/10/24 11:09:13;;;;;;;8.02;5.28;;;;;;;14.15;88.04;99952.78;7396639;19;20343;-66
2023/10/24 11:11:41;;;;;;;18.27;10.75;;;;;;;14.18;87.78;99955.25;7399013;19;20532;-66
2023/10/24 11:14:15;;;;;;;12.68;8.80;;;;;;;14.23;87.66;99955.03;7396794;19;20079;-66
2023/10/24 11:16:44;;;;;;;8.65;6.70;;;;;;;14.26;87.40;99957.50;7398487;19;20035;-67
2023/10/24 11:19:20;;;;;;;10.60;5.85;;;;;;;14.28;86.92;99949.50;7398362;19;20031;-66
2023/10/24 11:21:50;;;;;;;10.23;5.65;;;;;;;14.36;87.21;99963.19;7395946;19;20499;-66
2023/10/24 11:24:22;;;;;;;11.38;5.10;;;;;;;14.39;86.70;99968.31;7399785;19;20024;-66
2023/10/24 11:26:51;;;;;;;9.68;4.95;;;;;;;14.42;86.54;99967.28;7399665;19;20035;-66
2023/10/24 11:29:19;;;;;;;8.15;5.10;;;;;;;14.44;86.19;99968.09;7399683;19;20014;-66